Time;durP1;ratioP1;P1;durP2;ratioP2;P2;SDS_P1;SDS_P2;PMS_P1;PMS_P2;Temp;Humidity;BMP_temperature;BMP_pressure;BME280_temperature;BME280_humidity;BME280_pressure;Samples;Min_cycle;Max_cycle;Signal;HPM_P1;HPM_P2
2021/08/13 00:00:59;;;;;;;10.98;7.35;;;;;;;;;;5020581;28;20104;-77
2021/08/13 00:03:25;;;;;;;8.70;6.60;;;;;;;;;;5025219;28;20555;-77
2021/08/13 00:05:51;;;;;;;11.65;7.30;;;;;;;;;;4990167;28;20048;-78
2021/08/13 00:08:17;;;;;;;9.60;7.10;;;;;;;;;;5013041;28;20034;-78
2021/08/13 00:10:43;;;;;;;9.90;7.50;;;;;;;;;;5031918;28;20056;-77
2021/08/13 00:13:09;;;;;;;10.18;6.75;;;;;;;;;;5030500;28;20048;-78
2021/08/13 00:15:35;;;;;;;8.68;6.22;;;;;;;;;;5032994;28;20514;-78
2021/08/13 00:18:01;;;;;;;10.32;6.78;;;;;;;;;;5032965;28;20010;-78
2021/08/13 00:20:27;;;;;;;9.38;6.57;;;;;;;;;;5031718;28;20025;-78
2021/08/13 00:22:53;;;;;;;8.63;6.13;;;;;;;;;;5023587;28;20038;-78
2021/08/13 00:25:21;;;;;;;9.45;6.90;;;;;;;;;;5007435;28;20467;-79
2021/08/13 00:27:47;;;;;;;11.38;6.90;;;;;;;;;;5028277;28;20026;-79
2021/08/13 00:30:13;;;;;;;10.18;7.13;;;;;;;;;;5025291;28;20105;-77
2021/08/13 00:32:40;;;;;;;10.73;6.97;;;;;;;;;;5024770;28;20202;-79
2021/08/13 00:35:06;;;;;;;10.50;7.15;;;;;;;;;;5032098;28;20081;-78
2021/08/13 00:37:32;;;;;;;11.02;6.70;;;;;;;;;;5031948;28;20060;-79
2021/08/13 00:39:58;;;;;;;8.50;6.85;;;;;;;;;;5027344;28;20038;-78
2021/08/13 00:42:25;;;;;;;10.10;7.82;;;;;;;;;;5027081;28;20033;-79
2021/08/13 00:44:51;;;;;;;10.73;7.38;;;;;;;;;;5020700;28;20030;-77
2021/08/13 00:47:17;;;;;;;10.48;8.20;;;;;;;;;;5023671;28;20402;-78
2021/08/13 00:49:43;;;;;;;10.18;6.93;;;;;;;;;;5034921;28;20037;-79
2021/08/13 00:52:09;;;;;;;9.38;6.95;;;;;;;;;;5051101;28;20026;-78
2021/08/13 00:54:35;;;;;;;11.25;6.90;;;;;;;;;;5051760;28;20489;-78
2021/08/13 00:57:01;;;;;;;11.43;7.32;;;;;;;;;;5035651;28;20041;-78
2021/08/13 00:59:27;;;;;;;8.82;6.68;;;;;;;;;;5026486;28;20037;-78
2021/08/13 01:01:53;;;;;;;9.05;7.53;;;;;;;;;;5024250;28;20036;-78
2021/08/13 01:04:19;;;;;;;8.90;7.40;;;;;;;;;;5024672;28;20036;-78
2021/08/13 01:06:45;;;;;;;10.32;6.82;;;;;;;;;;5023046;28;20065;-78
2021/08/13 01:09:11;;;;;;;9.90;6.32;;;;;;;;;;5023620;28;20129;-78
2021/08/13 01:11:53;;;;;;;9.77;7.13;;;;;;;;;;5039703;28;20383;-78
2021/08/13 01:14:29;;;;;;;10.45;6.60;;;;;;;;;;5016330;28;20032;-78
2021/08/13 01:16:55;;;;;;;8.70;6.97;;;;;;;;;;5015444;28;20052;-78
2021/08/13 01:19:21;;;;;;;9.65;7.47;;;;;;;;;;5030681;28;20034;-78
2021/08/13 01:22:00;;;;;;;14.23;7.32;;;;;;;;;;5015342;28;20445;-78
2021/08/13 01:24:27;;;;;;;10.63;7.13;;;;;;;;;;5015292;28;20021;-77
2021/08/13 01:27:06;;;;;;;10.48;7.75;;;;;;;;;;5030169;28;20030;-77
2021/08/13 01:29:51;;;;;;;9.25;7.15;;;;;;;;;;5029434;28;20029;-78
2021/08/13 01:32:26;;;;;;;9.43;6.93;;;;;;;;;;5015060;28;20034;-77
2021/08/13 01:34:54;;;;;;;11.45;7.32;;;;;;;;;;5014953;28;20109;-78
2021/08/13 01:37:21;;;;;;;11.95;7.25;;;;;;;;;;5014708;28;20032;-77
2021/08/13 01:39:48;;;;;;;15.32;7.40;;;;;;;;;;5029205;28;20125;-77
2021/08/13 01:42:14;;;;;;;10.07;6.75;;;;;;;;;;5014589;28;20428;-77
2021/08/13 01:44:41;;;;;;;9.35;6.85;;;;;;;;;;5013931;28;20112;-77
2021/08/13 01:47:07;;;;;;;8.75;6.32;;;;;;;;;;5014362;28;20053;-78
2021/08/13 01:49:34;;;;;;;9.35;7.30;;;;;;;;;;5013982;28;20030;-77
2021/08/13 01:52:01;;;;;;;9.65;7.18;;;;;;;;;;5014443;28;20022;-78
2021/08/13 01:54:27;;;;;;;10.75;7.00;;;;;;;;;;5014636;28;20022;-77
2021/08/13 01:56:54;;;;;;;10.15;6.90;;;;;;;;;;5029541;28;20053;-78
2021/08/13 01:59:21;;;;;;;10.23;7.03;;;;;;;;;;5014004;28;20026;-78
2021/08/13 02:01:47;;;;;;;9.02;6.95;;;;;;;;;;4997021;28;20523;-77
2021/08/13 02:04:19;;;;;;;10.65;7.03;;;;;;;;;;5014472;28;20022;-77
2021/08/13 02:06:46;;;;;;;9.32;6.63;;;;;;;;;;4996439;28;20030;-77
2021/08/13 02:09:13;;;;;;;11.38;8.07;;;;;;;;;;5013740;28;20029;-78
2021/08/13 02:11:39;;;;;;;9.40;7.65;;;;;;;;;;5014390;28;20410;-77
2021/08/13 02:14:05;;;;;;;11.85;8.00;;;;;;;;;;5014500;28;20018;-77
2021/08/13 02:16:31;;;;;;;9.68;6.78;;;;;;;;;;5013811;28;20041;-77
2021/08/13 02:19:03;;;;;;;8.70;7.10;;;;;;;;;;4996331;28;20053;-78
2021/08/13 02:21:32;;;;;;;12.20;7.57;;;;;;;;;;5014690;28;20032;-77
2021/08/13 02:23:58;;;;;;;9.10;6.90;;;;;;;;;;5014423;28;20368;-77
2021/08/13 02:26:24;;;;;;;10.52;7.32;;;;;;;;;;5014364;28;20235;-78
2021/08/13 02:28:50;;;;;;;8.15;7.22;;;;;;;;;;5013561;28;20112;-78
2021/08/13 02:31:16;;;;;;;11.13;7.05;;;;;;;;;;5028413;28;20138;-78
2021/08/13 02:33:42;;;;;;;10.70;6.97;;;;;;;;;;5013532;28;20032;-77
2021/08/13 02:36:13;;;;;;;9.45;7.50;;;;;;;;;;5013372;28;20037;-77
2021/08/13 02:38:57;;;;;;;10.70;7.20;;;;;;;;;;5013935;28;20048;-78
2021/08/13 02:41:24;;;;;;;17.83;9.48;;;;;;;;;;5015956;28;20096;-81
2021/08/13 02:43:54;;;;;;;16.23;8.85;;;;;;;;;;5015882;28;20335;-80
2021/08/13 02:46:21;;;;;;;12.40;8.35;;;;;;;;;;5017536;28;20085;-80
2021/08/13 02:48:49;;;;;;;13.70;8.35;;;;;;;;;;5035046;28;20032;-81
2021/08/13 02:51:16;;;;;;;16.10;8.95;;;;;;;;;;5020474;28;20021;-81
2021/08/13 02:53:44;;;;;;;13.80;8.65;;;;;;;;;;5022555;28;20033;-82
2021/08/13 02:56:11;;;;;;;13.60;10.18;;;;;;;;;;5040610;28;20482;-82
2021/08/13 02:58:52;;;;;;;15.13;9.18;;;;;;;;;;5022908;28;20073;-82
2021/08/13 03:01:22;;;;;;;15.07;9.65;;;;;;;;;;5021659;28;20323;-82
2021/08/13 03:03:48;;;;;;;12.75;10.52;;;;;;;;;;5022013;28;20114;-83
2021/08/13 03:06:16;;;;;;;18.38;10.73;;;;;;;;;;5023355;28;20049;-80
2021/08/13 03:08:42;;;;;;;24.98;12.27;;;;;;;;;;5018612;28;20110;-79
2021/08/13 03:11:10;;;;;;;17.77;11.75;;;;;;;;;;4984729;28;20030;-80
2021/08/13 03:13:36;;;;;;;19.70;12.50;;;;;;;;;;5019672;28;20097;-79
2021/08/13 03:16:02;;;;;;;18.85;12.60;;;;;;;;;;5017956;28;20037;-78
2021/08/13 03:18:29;;;;;;;19.40;12.32;;;;;;;;;;5020946;28;20029;-79
2021/08/13 03:20:55;;;;;;;17.33;12.90;;;;;;;;;;5021665;28;20036;-79
2021/08/13 03:23:21;;;;;;;14.63;12.50;;;;;;;;;;5019405;28;20045;-78
2021/08/13 03:25:47;;;;;;;18.55;13.32;;;;;;;;;;5018901;28;20393;-78
2021/08/13 03:28:13;;;;;;;23.65;13.88;;;;;;;;;;5020017;28;20482;-79
2021/08/13 03:30:40;;;;;;;19.25;14.73;;;;;;;;;;5019158;28;20120;-78
2021/08/13 03:33:08;;;;;;;20.83;14.60;;;;;;;;;;5021621;28;20025;-79
2021/08/13 03:35:34;;;;;;;23.38;16.63;;;;;;;;;;5021075;28;20233;-79
2021/08/13 03:38:00;;;;;;;20.50;14.73;;;;;;;;;;5003505;28;20439;-79
2021/08/13 03:40:26;;;;;;;22.65;16.25;;;;;;;;;;5018032;28;20053;-81
2021/08/13 03:42:52;;;;;;;22.83;15.93;;;;;;;;;;5018950;28;20026;-79
2021/08/13 03:45:18;;;;;;;24.95;15.95;;;;;;;;;;5002455;28;20073;-78
2021/08/13 03:47:44;;;;;;;23.15;17.30;;;;;;;;;;5017357;28;20030;-78
2021/08/13 03:50:10;;;;;;;21.58;17.10;;;;;;;;;;5019489;28;20034;-79
2021/08/13 03:52:36;;;;;;;24.33;16.88;;;;;;;;;;5026534;22;20053;-75
2021/08/13 03:55:02;;;;;;;22.15;16.73;;;;;;;;;;4971696;28;20027;-76
2021/08/13 03:57:28;;;;;;;23.13;16.38;;;;;;;;;;4972994;28;20031;-76
2021/08/13 03:59:54;;;;;;;21.63;15.98;;;;;;;;;;4984829;28;20037;-78
2021/08/13 04:02:20;;;;;;;23.48;16.52;;;;;;;;;;4997648;28;20579;-78
2021/08/13 04:04:46;;;;;;;21.40;16.17;;;;;;;;;;4997871;28;20070;-77
2021/08/13 04:07:12;;;;;;;23.90;16.17;;;;;;;;;;4980162;28;20030;-78
2021/08/13 04:09:37;;;;;;;19.40;15.07;;;;;;;;;;4997629;28;20034;-79
2021/08/13 04:12:04;;;;;;;18.77;15.20;;;;;;;;;;4995671;28;20022;-76
2021/08/13 04:14:30;;;;;;;19.48;15.30;;;;;;;;;;4992484;28;20483;-76
2021/08/13 04:16:56;;;;;;;18.73;15.13;;;;;;;;;;4992540;28;20057;-76
2021/08/13 04:19:22;;;;;;;19.05;15.45;;;;;;;;;;4993467;28;20069;-76
2021/08/13 04:21:48;;;;;;;21.85;15.70;;;;;;;;;;4996196;28;20088;-76
2021/08/13 04:24:14;;;;;;;21.40;15.77;;;;;;;;;;4997473;28;20042;-76
2021/08/13 04:26:40;;;;;;;22.50;17.60;;;;;;;;;;4996263;28;20112;-76
2021/08/13 04:29:06;;;;;;;25.42;18.38;;;;;;;;;;4995398;28;20065;-75
2021/08/13 04:31:32;;;;;;;29.50;21.17;;;;;;;;;;4995772;28;20088;-76
2021/08/13 04:33:58;;;;;;;26.40;20.13;;;;;;;;;;4996022;28;20030;-76
2021/08/13 04:36:24;;;;;;;27.35;19.33;;;;;;;;;;4995685;28;20502;-76
2021/08/13 04:38:50;;;;;;;24.75;19.95;;;;;;;;;;4995560;28;20026;-75
2021/08/13 04:41:16;;;;;;;23.42;17.67;;;;;;;;;;4995317;28;20033;-75
2021/08/13 04:43:42;;;;;;;24.25;17.17;;;;;;;;;;4995785;28;20060;-76
2021/08/13 04:46:08;;;;;;;26.98;18.30;;;;;;;;;;4995476;28;20050;-76
2021/08/13 04:48:34;;;;;;;27.15;18.80;;;;;;;;;;4995614;28;20487;-76
2021/08/13 04:51:00;;;;;;;22.42;17.02;;;;;;;;;;4994586;28;20510;-76
2021/08/13 04:53:26;;;;;;;23.35;16.90;;;;;;;;;;4978197;28;20034;-76
2021/08/13 04:55:52;;;;;;;19.65;15.85;;;;;;;;;;4995682;28;20030;-75
2021/08/13 04:58:18;;;;;;;19.15;16.48;;;;;;;;;;4995589;28;20029;-74
2021/08/13 05:00:47;;;;;;;24.95;18.77;;;;;;;;;;4995033;28;20550;-75
2021/08/13 05:03:13;;;;;;;27.90;18.25;;;;;;;;;;4995240;28;20022;-74
2021/08/13 05:05:39;;;;;;;22.60;16.40;;;;;;;;;;4995217;28;20058;-75
2021/08/13 05:08:06;;;;;;;23.08;19.30;;;;;;;;;;4995322;28;20042;-74
2021/08/13 05:10:32;;;;;;;22.95;18.45;;;;;;;;;;4994402;28;20026;-75
2021/08/13 05:12:58;;;;;;;24.63;17.92;;;;;;;;;;4995156;28;20027;-75
2021/08/13 05:15:24;;;;;;;23.23;18.02;;;;;;;;;;4994901;28;20030;-74
2021/08/13 05:17:50;;;;;;;27.17;19.08;;;;;;;;;;4995035;28;20029;-74
2021/08/13 05:20:16;;;;;;;24.83;18.75;;;;;;;;;;4994456;28;20030;-74
2021/08/13 05:22:42;;;;;;;27.92;20.92;;;;;;;;;;4994996;28;20024;-74
2021/08/13 05:25:10;;;;;;;29.55;20.95;;;;;;;;;;4994870;28;20030;-74
2021/08/13 05:27:37;;;;;;;28.73;20.70;;;;;;;;;;4994735;28;20167;-74
2021/08/13 05:30:03;;;;;;;25.17;19.73;;;;;;;;;;4976384;28;20034;-75
2021/08/13 05:32:29;;;;;;;23.55;18.05;;;;;;;;;;4994335;28;20026;-74
2021/08/13 05:34:55;;;;;;;19.05;16.73;;;;;;;;;;4994447;28;20030;-74
2021/08/13 05:37:21;;;;;;;23.38;17.67;;;;;;;;;;4994718;28;20483;-74
2021/08/13 05:39:48;;;;;;;25.33;17.02;;;;;;;;;;4993993;28;20504;-74
2021/08/13 05:42:14;;;;;;;19.38;17.15;;;;;;;;;;4994658;28;20030;-74
2021/08/13 05:44:40;;;;;;;23.52;16.63;;;;;;;;;;4994601;28;20092;-74
2021/08/13 05:47:06;;;;;;;22.63;16.67;;;;;;;;;;4994429;28;20022;-74
2021/08/13 05:49:32;;;;;;;19.88;15.57;;;;;;;;;;4993802;28;20080;-74
2021/08/13 05:51:58;;;;;;;19.15;15.50;;;;;;;;;;4994486;28;20062;-74
2021/08/13 05:54:25;;;;;;;16.25;13.57;;;;;;;;;;4994341;28;20030;-74
2021/08/13 05:56:51;;;;;;;17.00;12.57;;;;;;;;;;4994671;28;20085;-75
2021/08/13 05:59:17;;;;;;;16.77;13.30;;;;;;;;;;4993772;28;20062;-75
2021/08/13 06:01:43;;;;;;;15.13;12.63;;;;;;;;;;4993967;28;20451;-74
2021/08/13 06:04:09;;;;;;;15.70;13.15;;;;;;;;;;4960724;28;20037;-74
2021/08/13 06:06:36;;;;;;;19.35;12.77;;;;;;;;;;4976844;28;20038;-74
2021/08/13 06:09:03;;;;;;;14.85;12.20;;;;;;;;;;4993572;28;20679;-74
2021/08/13 06:11:29;;;;;;;12.65;10.70;;;;;;;;;;4994028;28;20022;-75
2021/08/13 06:13:55;;;;;;;15.80;10.73;;;;;;;;;;4994054;28;20054;-74
2021/08/13 06:16:21;;;;;;;18.55;10.50;;;;;;;;;;4993814;28;20113;-74
2021/08/13 06:18:47;;;;;;;14.60;11.13;;;;;;;;;;4992510;28;20033;-74
2021/08/13 06:21:13;;;;;;;14.32;10.18;;;;;;;;;;4993579;28;20018;-74
2021/08/13 06:23:39;;;;;;;13.60;9.98;;;;;;;;;;4993952;28;20030;-74
2021/08/13 06:26:05;;;;;;;13.35;10.02;;;;;;;;;;4993919;28;20506;-74
2021/08/13 06:28:31;;;;;;;11.52;9.45;;;;;;;;;;4993747;28;20031;-77
2021/08/13 06:30:57;;;;;;;13.27;10.27;;;;;;;;;;4989749;28;20109;-76
2021/08/13 06:33:23;;;;;;;17.30;10.00;;;;;;;;;;4994687;28;20026;-77
2021/08/13 06:35:49;;;;;;;11.00;9.13;;;;;;;;;;4995063;28;20557;-77
2021/08/13 06:38:15;;;;;;;11.50;9.38;;;;;;;;;;4995489;28;20065;-78
2021/08/13 06:40:41;;;;;;;19.67;10.07;;;;;;;;;;4978887;28;20487;-77
2021/08/13 06:43:08;;;;;;;16.17;9.05;;;;;;;;;;4995525;28;20034;-76
2021/08/13 06:45:34;;;;;;;10.95;8.80;;;;;;;;;;4996083;28;20104;-77
2021/08/13 06:48:00;;;;;;;14.50;9.23;;;;;;;;;;4994903;28;20084;-77
2021/08/13 06:50:26;;;;;;;13.07;9.38;;;;;;;;;;4995561;28;20106;-77
2021/08/13 06:52:52;;;;;;;12.35;9.60;;;;;;;;;;5004961;28;20035;-77
2021/08/13 06:55:18;;;;;;;11.68;9.23;;;;;;;;;;5004239;28;20101;-77
2021/08/13 06:57:44;;;;;;;11.57;8.57;;;;;;;;;;4997838;28;20023;-77
2021/08/13 07:00:11;;;;;;;12.35;8.80;;;;;;;;;;4975473;28;20062;-77
2021/08/13 07:02:37;;;;;;;10.45;8.48;;;;;;;;;;4976416;28;20023;-77
2021/08/13 07:05:03;;;;;;;11.55;8.98;;;;;;;;;;4993908;28;20033;-77
2021/08/13 07:07:32;;;;;;;10.05;8.45;;;;;;;;;;4994616;28;20053;-75
2021/08/13 07:09:59;;;;;;;9.30;8.27;;;;;;;;;;4997075;28;20045;-76
2021/08/13 07:12:25;;;;;;;10.65;8.50;;;;;;;;;;4997735;28;20483;-77
2021/08/13 07:14:51;;;;;;;10.50;8.10;;;;;;;;;;4994194;28;20030;-77
2021/08/13 07:17:17;;;;;;;10.38;8.38;;;;;;;;;;4993352;28;20546;-77
2021/08/13 07:19:43;;;;;;;11.52;8.40;;;;;;;;;;4992840;28;20031;-77
2021/08/13 07:22:09;;;;;;;10.63;8.52;;;;;;;;;;4993384;28;20077;-76
2021/08/13 07:24:35;;;;;;;11.32;8.38;;;;;;;;;;4993745;28;20105;-76
2021/08/13 07:27:01;;;;;;;9.70;8.00;;;;;;;;;;4993481;28;20026;-76
2021/08/13 07:29:27;;;;;;;13.90;7.93;;;;;;;;;;4992192;28;20032;-77
2021/08/13 07:31:53;;;;;;;12.93;8.07;;;;;;;;;;4993405;28;20038;-77
2021/08/13 07:34:19;;;;;;;9.73;7.45;;;;;;;;;;4995034;28;20026;-77
2021/08/13 07:36:45;;;;;;;10.00;8.10;;;;;;;;;;4993187;28;20026;-76
2021/08/13 07:39:11;;;;;;;11.13;7.95;;;;;;;;;;4992640;28;20716;-77
2021/08/13 07:41:37;;;;;;;8.63;7.10;;;;;;;;;;4993425;28;20027;-77
2021/08/13 07:44:03;;;;;;;11.07;7.95;;;;;;;;;;4993819;28;20390;-77
2021/08/13 07:46:29;;;;;;;10.80;6.85;;;;;;;;;;4975927;28;20037;-77
2021/08/13 07:48:55;;;;;;;10.25;7.28;;;;;;;;;;4991528;28;20038;-77
2021/08/13 07:51:21;;;;;;;9.90;7.03;;;;;;;;;;4992706;28;20034;-76
2021/08/13 07:53:47;;;;;;;11.30;7.82;;;;;;;;;;4992114;28;20030;-76
2021/08/13 07:56:13;;;;;;;13.13;6.95;;;;;;;;;;4995245;28;20030;-76
2021/08/13 07:58:39;;;;;;;8.05;6.50;;;;;;;;;;4999483;28;20018;-76
2021/08/13 08:01:05;;;;;;;10.13;7.18;;;;;;;;;;4998583;28;20034;-77
2021/08/13 08:03:31;;;;;;;12.48;6.90;;;;;;;;;;4999487;28;20376;-76
2021/08/13 08:05:57;;;;;;;10.27;6.57;;;;;;;;;;4998955;28;20033;-76
2021/08/13 08:08:24;;;;;;;11.18;7.60;;;;;;;;;;4998847;28;20526;-76
2021/08/13 08:10:50;;;;;;;10.90;6.43;;;;;;;;;;4998577;28;20109;-76
2021/08/13 08:13:16;;;;;;;12.23;6.95;;;;;;;;;;4998836;28;20022;-76
2021/08/13 08:15:42;;;;;;;9.98;7.30;;;;;;;;;;4999416;28;20041;-76
2021/08/13 08:18:09;;;;;;;13.50;6.65;;;;;;;;;;4999991;28;20372;-77
2021/08/13 08:20:35;;;;;;;13.60;7.78;;;;;;;;;;4998458;28;20566;-77
2021/08/13 08:23:01;;;;;;;11.52;6.93;;;;;;;;;;4999011;28;20062;-76
2021/08/13 08:25:27;;;;;;;9.65;6.43;;;;;;;;;;4981116;28;20026;-77
2021/08/13 08:27:53;;;;;;;7.88;6.32;;;;;;;;;;4998952;28;20073;-76
2021/08/13 08:30:19;;;;;;;9.23;6.22;;;;;;;;;;4998273;28;20023;-76
2021/08/13 08:32:45;;;;;;;9.73;6.43;;;;;;;;;;4998997;28;20511;-77
2021/08/13 08:35:11;;;;;;;9.15;6.82;;;;;;;;;;4981377;28;20022;-76
2021/08/13 08:37:50;;;;;;;10.43;6.75;;;;;;;;;;4999077;28;20459;-77
2021/08/13 08:40:22;;;;;;;7.90;6.10;;;;;;;;;;4998195;28;20029;-76
2021/08/13 08:42:48;;;;;;;10.45;7.18;;;;;;;;;;4999093;28;20508;-76
2021/08/13 08:45:14;;;;;;;8.27;6.03;;;;;;;;;;4998877;28;20038;-76
2021/08/13 08:47:41;;;;;;;8.32;6.38;;;20.70;99.90;;;;;;4998795;28;20105;-75
2021/08/13 08:50:09;;;;;;;8.18;5.72;;;26.20;99.90;;;;;;4998044;28;20022;-77
2021/08/13 08:52:36;;;;;;;11.55;6.55;;;26.30;99.90;;;;;;4998087;28;20034;-76
2021/08/13 08:55:03;;;;;;;10.02;5.97;;;26.20;99.90;;;;;;4998068;28;20042;-76
2021/08/13 08:57:33;;;;;;;12.02;6.43;;;26.40;99.90;;;;;;4999761;28;20375;-77
2021/08/13 08:59:59;;;;;;;10.07;6.13;;;26.50;99.90;;;;;;5000093;28;20030;-76
2021/08/13 09:02:24;;;;;;;11.00;5.38;;;26.60;99.90;;;;;;5000485;28;20045;-78
2021/08/13 09:04:50;;;;;;;11.30;5.25;;;26.80;99.90;;;;;;4983437;28;20026;-78
2021/08/13 09:07:16;;;;;;;8.73;5.60;;;27.10;99.90;;;;;;4982622;28;20033;-78
2021/08/13 09:09:41;;;;;;;11.73;5.78;;;26.90;99.90;;;;;;4996758;28;20117;-77
2021/08/13 09:12:07;;;;;;;7.70;5.10;;;27.10;99.90;;;;;;4997489;28;20036;-76
2021/08/13 09:14:38;;;;;;;10.13;5.20;;;27.10;99.90;;;;;;4981044;28;20113;-77
2021/08/13 09:17:04;;;;;;;10.02;4.93;;;27.10;99.90;;;;;;4998869;28;20050;-79
2021/08/13 09:19:39;;;;;;;9.80;4.82;;;27.10;99.90;;;;;;4998360;28;20030;-78
2021/08/13 09:22:16;;;;;;;8.98;4.60;;;27.20;99.90;;;;;;4998518;28;20413;-79
2021/08/13 09:24:43;;;;;;;10.55;5.20;;;27.40;99.90;;;;;;4981192;28;20033;-79
2021/08/13 09:27:15;;;;;;;10.40;4.75;;;27.40;99.90;;;;;;4998653;28;20486;-78
2021/08/13 09:30:01;;;;;;;10.40;5.05;;;27.60;99.90;;;;;;4980729;28;20022;-79
2021/08/13 09:32:27;;;;;;;9.98;4.90;;;27.70;99.90;;;;;;4998332;28;20037;-79
2021/08/13 09:34:53;;;;;;;8.57;5.47;;;27.50;99.90;;;;;;4998367;28;20439;-78
2021/08/13 09:37:18;;;;;;;9.80;5.22;;;27.70;99.90;;;;;;4999517;28;20031;-79
2021/08/13 09:39:51;;;;;;;8.73;5.07;;;27.80;99.90;;;;;;5008067;28;20035;-76
2021/08/13 09:42:17;;;;;;;10.88;4.88;;;27.70;99.90;;;;;;5009361;28;20105;-78
2021/08/13 09:44:43;;;;;;;10.40;4.88;;;28.00;99.90;;;;;;5000210;28;20054;-78
2021/08/13 09:47:13;;;;;;;8.30;4.75;;;28.10;99.90;;;;;;5006331;28;20030;-76
2021/08/13 09:49:41;;;;;;;8.98;4.47;;;28.30;99.90;;;;;;5007561;28;20094;-77
2021/08/13 09:52:12;;;;;;;11.95;4.82;;;28.70;99.90;;;;;;5007446;28;20169;-77
2021/08/13 09:54:38;;;;;;;12.95;4.78;;;28.90;99.90;;;;;;5004478;28;20034;-78
2021/08/13 09:57:08;;;;;;;8.13;4.50;;;29.30;99.90;;;;;;4998322;28;20019;-79
2021/08/13 09:59:34;;;;;;;7.95;5.05;;;29.60;99.90;;;;;;4999424;28;20081;-78
2021/08/13 10:02:12;;;;;;;13.43;4.53;;;30.10;99.90;;;;;;4998395;28;20034;-79
2021/08/13 10:04:38;;;;;;;11.48;4.70;;;30.30;99.90;;;;;;4998985;28;20065;-78
2021/08/13 10:07:04;;;;;;;12.18;5.28;;;30.50;99.90;;;;;;4998391;28;20026;-78
2021/08/13 10:09:30;;;;;;;16.25;5.50;;;;;;;;;;4996903;28;20038;-78
2021/08/13 10:12:03;;;;;;;9.43;4.60;;;31.00;99.90;;;;;;4997611;28;20019;-79
2021/08/13 10:14:33;;;;;;;9.70;4.95;;;31.60;99.10;;;;;;4997270;28;20469;-78
2021/08/13 10:17:09;;;;;;;9.43;5.05;;;;;;;;;;4991257;28;20030;-77
2021/08/13 10:19:36;;;;;;;9.30;4.30;;;;;;;;;;4992945;28;20395;-78
2021/08/13 10:22:02;;;;;;;8.02;4.80;;;31.80;98.40;;;;;;4993715;28;20026;-78
2021/08/13 10:24:29;;;;;;;8.15;5.20;;;31.90;96.50;;;;;;4993786;28;20026;-77
2021/08/13 10:26:56;;;;;;;11.10;4.95;;;32.30;95.90;;;;;;4993849;28;20137;-77
2021/08/13 10:29:22;;;;;;;9.60;4.63;;;31.90;96.10;;;;;;4992895;28;20138;-75
2021/08/13 10:31:48;;;;;;;6.55;4.70;;;31.70;96.10;;;;;;4994016;28;20035;-75
2021/08/13 10:34:14;;;;;;;7.78;4.63;;;31.50;96.50;;;;;;4995330;28;20038;-79
2021/08/13 10:36:42;;;;;;;11.25;5.00;;;31.80;96.20;;;;;;4996962;28;20023;-79
2021/08/13 10:39:10;;;;;;;7.88;4.15;;;31.70;95.70;;;;;;4976679;28;20034;-78
2021/08/13 10:41:39;;;;;;;10.10;4.38;;;31.90;95.60;;;;;;4996298;28;20026;-78
2021/08/13 10:44:09;;;;;;;9.43;4.38;;;31.40;95.00;;;;;;4997795;28;20050;-79
2021/08/13 10:46:37;;;;;;;11.80;4.60;;;31.90;94.10;;;;;;4976614;28;20126;-78
2021/08/13 10:49:04;;;;;;;8.07;4.57;;;31.70;94.50;;;;;;4992740;28;20057;-77
2021/08/13 10:51:33;;;;;;;8.77;4.32;;;32.30;95.90;;;;;;4993134;28;20133;-77
2021/08/13 10:54:07;;;;;;;11.50;5.45;;;31.90;94.70;;;;;;4978640;28;20026;-78
2021/08/13 10:56:40;;;;;;;6.38;4.07;;;31.90;94.90;;;;;;4998979;28;20027;-78
2021/08/13 10:59:06;;;;;;;8.70;4.65;;;32.30;93.80;;;;;;4995605;28;20391;-78
2021/08/13 11:01:32;;;;;;;9.10;5.00;;;32.40;94.90;;;;;;4995165;28;20022;-78
2021/08/13 11:03:58;;;;;;;10.10;5.32;;;32.00;93.60;;;;;;4995683;28;20078;-77
2021/08/13 11:06:39;;;;;;;9.85;5.32;;;31.90;94.30;;;;;;4993392;28;20031;-77
2021/08/13 11:09:21;;;;;;;9.27;5.25;;;31.70;94.80;;;;;;4992996;28;20074;-78
2021/08/13 11:11:52;;;;;;;11.27;5.10;;;32.10;94.70;;;;;;4993762;28;20100;-78
2021/08/13 11:14:29;;;;;;;9.53;4.60;;;32.30;93.70;;;;;;4993984;28;20431;-78
2021/08/13 11:16:56;;;;;;;9.23;4.95;;;32.20;94.40;;;;;;4993413;28;20288;-76
2021/08/13 11:19:22;;;;;;;11.38;5.28;;;32.30;93.70;;;;;;4974840;28;20030;-76
2021/08/13 11:21:50;;;;;;;9.85;4.93;;;32.30;94.90;;;;;;4993184;28;20166;-79
2021/08/13 11:24:21;;;;;;;9.50;5.15;;;32.60;93.10;;;;;;4994338;28;20057;-78
2021/08/13 11:26:53;;;;;;;7.88;5.15;;;32.50;94.10;;;;;;4993433;28;20030;-78
2021/08/13 11:29:30;;;;;;;8.23;4.95;;;32.90;93.80;;;;;;4992394;28;20105;-77
2021/08/13 11:32:26;;;;;;;7.15;4.95;;;33.20;92.80;;;;;;4992920;28;20053;-78
2021/08/13 11:35:08;;;;;;;11.82;5.07;;;33.50;93.00;;;;;;4962040;28;20037;-78
2021/08/13 11:37:46;;;;;;;12.98;5.80;;;33.80;92.90;;;;;;4993649;28;20428;-78
2021/08/13 11:40:11;;;;;;;9.38;5.65;;;33.80;91.90;;;;;;4993734;28;20386;-78
2021/08/13 11:42:38;;;;;;;9.40;6.30;;;33.40;92.40;;;;;;4994764;28;20105;-79
2021/08/13 11:45:07;;;;;;;8.80;5.45;;;33.40;93.10;;;;;;4995210;28;20030;-78
2021/08/13 11:47:33;;;;;;;10.25;5.28;;;33.50;93.10;;;;;;4997482;28;20089;-80
2021/08/13 11:50:06;;;;;;;12.18;5.80;;;33.30;92.30;;;;;;4997061;28;20030;-80
2021/08/13 11:52:33;;;;;;;10.68;5.50;;;33.80;92.00;;;;;;4998305;28;20145;-81
2021/08/13 11:55:20;;;;;;;10.43;5.90;;;33.80;93.10;;;;;;4997727;28;20399;-80
2021/08/13 11:57:46;;;;;;;8.25;5.38;;;34.30;91.80;;;;;;4996614;28;20026;-78
2021/08/13 12:00:17;;;;;;;10.32;5.63;;;34.40;91.30;;;;;;4991587;28;20121;-77
2021/08/13 12:02:43;;;;;;;8.82;5.80;;;34.20;90.90;;;;;;4992753;28;20073;-81
2021/08/13 12:05:11;;;;;;;11.63;5.80;;;34.00;90.20;;;;;;4992742;28;20098;-79
2021/08/13 12:07:37;;;;;;;11.25;5.85;;;34.00;91.30;;;;;;4991880;28;20030;-78
2021/08/13 12:10:11;;;;;;;10.05;6.30;;;33.80;90.60;;;;;;4995163;28;20022;-78
2021/08/13 12:12:37;;;;;;;10.60;6.43;;;33.50;90.70;;;;;;4993540;28;20033;-77
2021/08/13 12:15:03;;;;;;;11.32;6.65;;;33.50;90.40;;;;;;4994688;28;20030;-78
2021/08/13 12:17:29;;;;;;;9.88;6.20;;;33.50;90.70;;;;;;4995955;28;20061;-78
2021/08/13 12:19:57;;;;;;;8.35;5.93;;;32.90;91.60;;;;;;4995027;28;20038;-78
2021/08/13 12:22:33;;;;;;;10.15;5.90;;;33.20;91.30;;;;;;4992816;28;20644;-78
2021/08/13 12:25:00;;;;;;;13.60;6.53;;;34.00;90.90;;;;;;4992774;28;20517;-78
2021/08/13 12:27:27;;;;;;;10.50;6.53;;;33.70;90.10;;;;;;4992661;28;20078;-79
2021/08/13 12:29:53;;;;;;;13.52;6.68;;;33.80;90.70;;;;;;4992583;28;20030;-78
2021/08/13 12:32:19;;;;;;;9.18;6.63;;;34.10;89.80;;;;;;4992401;28;20023;-78
2021/08/13 12:34:51;;;;;;;7.72;5.82;;;33.90;90.40;;;;;;4992852;28;20436;-79
2021/08/13 12:37:20;;;;;;;12.98;6.70;;;33.50;91.20;;;;;;4993242;28;20109;-78
2021/08/13 12:39:46;;;;;;;14.45;7.05;;;33.70;90.70;;;;;;4991707;28;20034;-79
2021/08/13 12:42:16;;;;;;;9.15;6.63;;;34.00;90.70;;;;;;4992885;28;20026;-78
2021/08/13 12:44:43;;;;;;;12.20;7.03;;;34.20;91.10;;;;;;4996299;28;20035;-79
2021/08/13 12:47:10;;;;;;;8.95;6.43;;;34.90;90.10;;;;;;4996638;28;20052;-79
2021/08/13 12:49:38;;;;;;;7.25;6.35;;;34.70;89.70;;;;;;4996108;28;20502;-78
2021/08/13 12:52:15;;;;;;;11.23;6.70;;;35.00;90.60;;;;;;4998114;28;20146;-79
2021/08/13 12:54:49;;;;;;;9.13;6.82;;;35.10;89.00;;;;;;4997986;28;20106;-79
2021/08/13 12:57:16;;;;;;;11.57;6.40;;;35.10;87.30;;;;;;4998007;28;20495;-78
2021/08/13 13:00:04;;;;;;;9.18;6.57;;;35.40;86.70;;;;;;4998826;28;20030;-81
2021/08/13 13:02:30;;;;;;;10.02;5.88;;;35.10;86.30;;;;;;5000640;28;20439;-81
2021/08/13 13:05:01;;;;;;;9.70;5.55;;;34.90;86.50;;;;;;5001614;28;20117;-81
2021/08/13 13:07:28;;;;;;;;;;;35.30;87.50;;;;;;4999483;28;20031;-79
2021/08/13 13:09:54;;;;;;;9.23;5.65;;;35.30;86.50;;;;;;4996692;28;19913;-79
2021/08/13 13:12:21;;;;;;;10.05;6.20;;;35.40;84.20;;;;;;4997309;28;20126;-79
2021/08/13 13:14:53;;;;;;;9.45;6.15;;;35.00;84.40;;;;;;4997400;28;20097;-79
2021/08/13 13:17:18;;;;;;;8.77;6.15;;;35.20;84.70;;;;;;4997113;28;20023;-79
2021/08/13 13:20:08;;;;;;;11.95;6.22;;;34.80;82.10;;;;;;4998251;28;20041;-79
2021/08/13 13:22:35;;;;;;;9.38;5.28;;;34.70;83.20;;;;;;4997525;28;20077;-79
2021/08/13 13:25:10;;;;;;;10.25;6.38;;;35.10;82.20;;;;;;4997987;28;20034;-80
2021/08/13 13:27:54;;;;;;;9.95;5.60;;;35.30;84.10;;;;;;5000251;28;20025;-80
2021/08/13 13:30:37;;;;;;;8.45;5.40;;;36.00;79.70;;;;;;4994306;28;20022;-79
2021/08/13 13:33:24;;;;;;;9.07;5.43;;;35.90;79.20;;;;;;4995349;28;20054;-79
2021/08/13 13:36:04;;;;;;;8.32;5.60;;;35.50;78.10;;;;;;4997319;28;20018;-79
2021/08/13 13:38:39;;;;;;;8.57;5.50;;;35.50;76.40;;;;;;4995741;28;20054;-80
2021/08/13 13:41:07;;;;;;;11.77;5.25;;;34.90;78.30;;;;;;4981480;28;20470;-79
2021/08/13 13:43:34;;;;;;;9.88;5.43;;;35.30;77.90;;;;;;4991382;28;20389;-81
2021/08/13 13:46:00;;;;;;;7.40;5.72;;;35.90;78.10;;;;;;4992877;28;20165;-79
2021/08/13 13:48:27;;;;;;;6.88;5.90;;;35.50;76.00;;;;;;4993636;28;20030;-80
2021/08/13 13:50:53;;;;;;;9.45;6.10;;;35.60;76.50;;;;;;4992486;28;20030;-80